sensor_id;sensor_type;location;lat;lon;timestamp;P1;durP1;ratioP1;P2;durP2;ratioP2
6388;SDS011;3227;42.654;23.360;2024-03-08T00:01:06;11.73;;;5.50;;
6388;SDS011;3227;42.654;23.360;2024-03-08T00:03:32;11.80;;;5.17;;
6388;SDS011;3227;42.654;23.360;2024-03-08T00:05:59;9.83;;;5.10;;
6388;SDS011;3227;42.654;23.360;2024-03-08T00:08:26;10.50;;;5.63;;
6388;SDS011;3227;42.654;23.360;2024-03-08T00:10:54;8.10;;;4.67;;
6388;SDS011;3227;42.654;23.360;2024-03-08T00:13:21;10.03;;;5.00;;
6388;SDS011;3227;42.654;23.360;2024-03-08T00:15:50;10.10;;;5.03;;
6388;SDS011;3227;42.654;23.360;2024-03-08T00:18:17;8.50;;;5.03;;
6388;SDS011;3227;42.654;23.360;2024-03-08T00:20:43;8.93;;;5.07;;
6388;SDS011;3227;42.654;23.360;2024-03-08T00:23:10;10.17;;;4.90;;
6388;SDS011;3227;42.654;23.360;2024-03-08T00:25:37;10.03;;;4.97;;
6388;SDS011;3227;42.654;23.360;2024-03-08T00:28:05;8.90;;;4.63;;
6388;SDS011;3227;42.654;23.360;2024-03-08T00:30:32;9.33;;;4.47;;
6388;SDS011;3227;42.654;23.360;2024-03-08T00:32:58;8.07;;;4.23;;
6388;SDS011;3227;42.654;23.360;2024-03-08T00:35:25;8.53;;;4.47;;
6388;SDS011;3227;42.654;23.360;2024-03-08T00:37:52;9.43;;;4.77;;
6388;SDS011;3227;42.654;23.360;2024-03-08T00:40:21;7.70;;;4.30;;
6388;SDS011;3227;42.654;23.360;2024-03-08T00:42:48;9.17;;;4.87;;
6388;SDS011;3227;42.654;23.360;2024-03-08T00:45:17;8.73;;;4.70;;
6388;SDS011;3227;42.654;23.360;2024-03-08T00:47:43;7.80;;;4.13;;
6388;SDS011;3227;42.654;23.360;2024-03-08T00:50:10;8.50;;;4.53;;
6388;SDS011;3227;42.654;23.360;2024-03-08T00:52:38;9.10;;;4.60;;
6388;SDS011;3227;42.654;23.360;2024-03-08T00:55:04;8.63;;;4.67;;
6388;SDS011;3227;42.654;23.360;2024-03-08T00:57:33;8.73;;;4.83;;
6388;SDS011;3227;42.654;23.360;2024-03-08T01:00:00;11.73;;;5.43;;
6388;SDS011;3227;42.654;23.360;2024-03-08T01:02:32;9.43;;;4.67;;
6388;SDS011;3227;42.654;23.360;2024-03-08T01:05:00;7.97;;;4.40;;
6388;SDS011;3227;42.654;23.360;2024-03-08T01:07:27;9.00;;;4.27;;
6388;SDS011;3227;42.654;23.360;2024-03-08T01:09:54;8.77;;;4.73;;
6388;SDS011;3227;42.654;23.360;2024-03-08T01:12:20;7.07;;;4.03;;
6388;SDS011;3227;42.654;23.360;2024-03-08T01:14:47;7.23;;;3.73;;
6388;SDS011;3227;42.654;23.360;2024-03-08T01:17:14;5.97;;;3.30;;
6388;SDS011;3227;42.654;23.360;2024-03-08T01:19:42;6.60;;;3.50;;
6388;SDS011;3227;42.654;23.360;2024-03-08T01:22:09;6.40;;;3.23;;
6388;SDS011;3227;42.654;23.360;2024-03-08T01:24:36;5.80;;;3.17;;
6388;SDS011;3227;42.654;23.360;2024-03-08T01:27:03;5.47;;;2.80;;
6388;SDS011;3227;42.654;23.360;2024-03-08T01:29:30;4.13;;;2.53;;
6388;SDS011;3227;42.654;23.360;2024-03-08T01:31:57;4.77;;;2.90;;
6388;SDS011;3227;42.654;23.360;2024-03-08T01:34:26;5.57;;;2.70;;
6388;SDS011;3227;42.654;23.360;2024-03-08T01:36:55;4.13;;;2.50;;
6388;SDS011;3227;42.654;23.360;2024-03-08T01:39:22;4.27;;;2.37;;
6388;SDS011;3227;42.654;23.360;2024-03-08T01:41:49;4.63;;;2.80;;
6388;SDS011;3227;42.654;23.360;2024-03-08T01:44:16;5.37;;;3.07;;
6388;SDS011;3227;42.654;23.360;2024-03-08T01:46:43;5.20;;;2.60;;
6388;SDS011;3227;42.654;23.360;2024-03-08T01:49:10;4.20;;;2.73;;
6388;SDS011;3227;42.654;23.360;2024-03-08T01:51:38;5.20;;;2.90;;
6388;SDS011;3227;42.654;23.360;2024-03-08T01:54:07;5.93;;;2.80;;
6388;SDS011;3227;42.654;23.360;2024-03-08T01:56:37;6.20;;;2.90;;
6388;SDS011;3227;42.654;23.360;2024-03-08T01:59:05;5.27;;;2.77;;
6388;SDS011;3227;42.654;23.360;2024-03-08T02:01:33;4.47;;;2.90;;
6388;SDS011;3227;42.654;23.360;2024-03-08T02:04:00;5.67;;;3.10;;
6388;SDS011;3227;42.654;23.360;2024-03-08T02:06:27;4.67;;;2.83;;
6388;SDS011;3227;42.654;23.360;2024-03-08T02:08:54;5.10;;;2.90;;
6388;SDS011;3227;42.654;23.360;2024-03-08T02:11:23;3.97;;;2.30;;
6388;SDS011;3227;42.654;23.360;2024-03-08T02:13:49;3.50;;;2.37;;
6388;SDS011;3227;42.654;23.360;2024-03-08T02:16:19;4.87;;;2.50;;
6388;SDS011;3227;42.654;23.360;2024-03-08T02:18:47;6.00;;;2.80;;
6388;SDS011;3227;42.654;23.360;2024-03-08T02:21:16;4.33;;;2.70;;
6388;SDS011;3227;42.654;23.360;2024-03-08T02:23:44;4.77;;;2.50;;
6388;SDS011;3227;42.654;23.360;2024-03-08T02:26:11;3.70;;;2.27;;
6388;SDS011;3227;42.654;23.360;2024-03-08T02:28:37;5.20;;;2.57;;
6388;SDS011;3227;42.654;23.360;2024-03-08T02:31:08;4.00;;;2.40;;
6388;SDS011;3227;42.654;23.360;2024-03-08T02:33:34;4.40;;;2.40;;
6388;SDS011;3227;42.654;23.360;2024-03-08T02:36:01;4.07;;;2.50;;
6388;SDS011;3227;42.654;23.360;2024-03-08T02:38:30;4.73;;;2.23;;
6388;SDS011;3227;42.654;23.360;2024-03-08T02:40:57;3.20;;;2.30;;
6388;SDS011;3227;42.654;23.360;2024-03-08T02:43:24;3.53;;;2.20;;
6388;SDS011;3227;42.654;23.360;2024-03-08T02:45:50;3.37;;;2.27;;
6388;SDS011;3227;42.654;23.360;2024-03-08T02:48:18;3.03;;;2.03;;
6388;SDS011;3227;42.654;23.360;2024-03-08T02:50:46;4.57;;;2.30;;
6388;SDS011;3227;42.654;23.360;2024-03-08T02:53:12;3.17;;;2.03;;
6388;SDS011;3227;42.654;23.360;2024-03-08T02:55:41;2.73;;;2.10;;
6388;SDS011;3227;42.654;23.360;2024-03-08T02:58:08;4.03;;;2.43;;
6388;SDS011;3227;42.654;23.360;2024-03-08T03:00:35;5.53;;;2.30;;
6388;SDS011;3227;42.654;23.360;2024-03-08T03:03:04;2.60;;;2.00;;
6388;SDS011;3227;42.654;23.360;2024-03-08T03:05:31;3.63;;;2.33;;
6388;SDS011;3227;42.654;23.360;2024-03-08T03:07:58;3.13;;;2.20;;
6388;SDS011;3227;42.654;23.360;2024-03-08T03:10:25;2.83;;;2.10;;
6388;SDS011;3227;42.654;23.360;2024-03-08T03:12:58;2.43;;;1.90;;
6388;SDS011;3227;42.654;23.360;2024-03-08T03:15:25;2.93;;;2.00;;
6388;SDS011;3227;42.654;23.360;2024-03-08T03:17:52;3.27;;;2.10;;
6388;SDS011;3227;42.654;23.360;2024-03-08T03:20:18;2.17;;;1.83;;
6388;SDS011;3227;42.654;23.360;2024-03-08T03:22:51;2.70;;;1.97;;
6388;SDS011;3227;42.654;23.360;2024-03-08T03:25:18;3.47;;;2.00;;
6388;SDS011;3227;42.654;23.360;2024-03-08T03:27:51;2.03;;;1.83;;
6388;SDS011;3227;42.654;23.360;2024-03-08T03:30:19;2.13;;;1.90;;
6388;SDS011;3227;42.654;23.360;2024-03-08T03:32:47;3.73;;;2.10;;
6388;SDS011;3227;42.654;23.360;2024-03-08T03:35:14;2.20;;;1.80;;
6388;SDS011;3227;42.654;23.360;2024-03-08T03:37:41;2.57;;;1.80;;
6388;SDS011;3227;42.654;23.360;2024-03-08T03:40:11;2.93;;;1.90;;
6388;SDS011;3227;42.654;23.360;2024-03-08T03:42:39;1.83;;;1.53;;
6388;SDS011;3227;42.654;23.360;2024-03-08T03:45:06;3.10;;;1.70;;
6388;SDS011;3227;42.654;23.360;2024-03-08T03:47:35;1.80;;;1.60;;
6388;SDS011;3227;42.654;23.360;2024-03-08T03:50:03;1.90;;;1.70;;
6388;SDS011;3227;42.654;23.360;2024-03-08T03:52:31;1.70;;;1.60;;
6388;SDS011;3227;42.654;23.360;2024-03-08T03:54:58;2.50;;;1.70;;
6388;SDS011;3227;42.654;23.360;2024-03-08T03:57:24;2.73;;;1.87;;
6388;SDS011;3227;42.654;23.360;2024-03-08T03:59:51;2.40;;;1.90;;
6388;SDS011;3227;42.654;23.360;2024-03-08T04:02:18;3.63;;;2.10;;
6388;SDS011;3227;42.654;23.360;2024-03-08T04:04:47;2.33;;;1.80;;
6388;SDS011;3227;42.654;23.360;2024-03-08T04:07:14;2.07;;;1.70;;
6388;SDS011;3227;42.654;23.360;2024-03-08T04:09:41;2.40;;;1.90;;
6388;SDS011;3227;42.654;23.360;2024-03-08T04:12:08;2.20;;;1.80;;
6388;SDS011;3227;42.654;23.360;2024-03-08T04:14:35;2.97;;;2.13;;
6388;SDS011;3227;42.654;23.360;2024-03-08T04:17:02;3.13;;;1.90;;
6388;SDS011;3227;42.654;23.360;2024-03-08T04:19:29;1.97;;;1.77;;
6388;SDS011;3227;42.654;23.360;2024-03-08T04:21:57;2.00;;;1.77;;
6388;SDS011;3227;42.654;23.360;2024-03-08T04:24:23;4.27;;;2.03;;
6388;SDS011;3227;42.654;23.360;2024-03-08T04:26:50;2.13;;;1.70;;
6388;SDS011;3227;42.654;23.360;2024-03-08T04:29:18;2.80;;;1.70;;
6388;SDS011;3227;42.654;23.360;2024-03-08T04:31:45;3.13;;;2.10;;
6388;SDS011;3227;42.654;23.360;2024-03-08T04:34:17;3.07;;;1.97;;
6388;SDS011;3227;42.654;23.360;2024-03-08T04:36:44;2.80;;;1.80;;
6388;SDS011;3227;42.654;23.360;2024-03-08T04:39:12;1.90;;;1.70;;
6388;SDS011;3227;42.654;23.360;2024-03-08T04:41:40;5.10;;;1.97;;
6388;SDS011;3227;42.654;23.360;2024-03-08T04:44:08;2.43;;;1.80;;
6388;SDS011;3227;42.654;23.360;2024-03-08T04:46:36;2.43;;;1.80;;
6388;SDS011;3227;42.654;23.360;2024-03-08T04:49:02;2.97;;;2.00;;
6388;SDS011;3227;42.654;23.360;2024-03-08T04:51:29;3.40;;;2.00;;
6388;SDS011;3227;42.654;23.360;2024-03-08T04:53:56;2.93;;;1.90;;
6388;SDS011;3227;42.654;23.360;2024-03-08T04:56:24;3.37;;;2.20;;
6388;SDS011;3227;42.654;23.360;2024-03-08T04:58:51;3.20;;;2.13;;
6388;SDS011;3227;42.654;23.360;2024-03-08T05:01:18;2.77;;;1.90;;
6388;SDS011;3227;42.654;23.360;2024-03-08T05:03:45;3.20;;;2.10;;
6388;SDS011;3227;42.654;23.360;2024-03-08T05:06:15;2.70;;;2.00;;
6388;SDS011;3227;42.654;23.360;2024-03-08T05:08:42;3.57;;;2.10;;
6388;SDS011;3227;42.654;23.360;2024-03-08T05:11:08;2.90;;;1.93;;
6388;SDS011;3227;42.654;23.360;2024-03-08T05:13:37;3.60;;;2.20;;
6388;SDS011;3227;42.654;23.360;2024-03-08T05:16:04;3.70;;;2.40;;
6388;SDS011;3227;42.654;23.360;2024-03-08T05:18:32;3.03;;;2.20;;
6388;SDS011;3227;42.654;23.360;2024-03-08T05:20:59;4.07;;;2.40;;
6388;SDS011;3227;42.654;23.360;2024-03-08T05:23:29;4.23;;;2.67;;
6388;SDS011;3227;42.654;23.360;2024-03-08T05:25:55;7.60;;;2.50;;
6388;SDS011;3227;42.654;23.360;2024-03-08T05:28:22;2.93;;;2.10;;
6388;SDS011;3227;42.654;23.360;2024-03-08T05:30:50;3.07;;;2.13;;
6388;SDS011;3227;42.654;23.360;2024-03-08T05:33:17;3.17;;;2.20;;
6388;SDS011;3227;42.654;23.360;2024-03-08T05:35:44;4.33;;;2.30;;
6388;SDS011;3227;42.654;23.360;2024-03-08T05:38:11;4.17;;;2.50;;
6388;SDS011;3227;42.654;23.360;2024-03-08T05:40:38;3.50;;;2.40;;
6388;SDS011;3227;42.654;23.360;2024-03-08T05:43:04;4.00;;;2.43;;
6388;SDS011;3227;42.654;23.360;2024-03-08T05:45:31;4.57;;;2.53;;
6388;SDS011;3227;42.654;23.360;2024-03-08T05:48:00;4.87;;;2.73;;
6388;SDS011;3227;42.654;23.360;2024-03-08T05:50:27;4.90;;;2.63;;
6388;SDS011;3227;42.654;23.360;2024-03-08T05:52:54;7.20;;;3.40;;
6388;SDS011;3227;42.654;23.360;2024-03-08T05:55:21;7.20;;;3.63;;
6388;SDS011;3227;42.654;23.360;2024-03-08T05:57:49;7.67;;;3.80;;
6388;SDS011;3227;42.654;23.360;2024-03-08T06:00:17;6.23;;;3.43;;
6388;SDS011;3227;42.654;23.360;2024-03-08T06:02:44;7.97;;;3.67;;
6388;SDS011;3227;42.654;23.360;2024-03-08T06:05:12;7.97;;;3.90;;
6388;SDS011;3227;42.654;23.360;2024-03-08T06:07:39;6.80;;;4.30;;
6388;SDS011;3227;42.654;23.360;2024-03-08T06:10:07;7.50;;;4.23;;
6388;SDS011;3227;42.654;23.360;2024-03-08T06:12:37;8.97;;;5.00;;
6388;SDS011;3227;42.654;23.360;2024-03-08T06:15:06;8.13;;;4.33;;
6388;SDS011;3227;42.654;23.360;2024-03-08T06:17:34;7.67;;;4.13;;
6388;SDS011;3227;42.654;23.360;2024-03-08T06:20:01;10.83;;;4.17;;
6388;SDS011;3227;42.654;23.360;2024-03-08T06:22:36;10.60;;;4.93;;
6388;SDS011;3227;42.654;23.360;2024-03-08T06:25:04;8.43;;;4.63;;
6388;SDS011;3227;42.654;23.360;2024-03-08T06:27:32;8.83;;;4.80;;
6388;SDS011;3227;42.654;23.360;2024-03-08T06:29:59;9.60;;;5.17;;
6388;SDS011;3227;42.654;23.360;2024-03-08T06:32:25;9.40;;;4.67;;
6388;SDS011;3227;42.654;23.360;2024-03-08T06:34:52;9.20;;;4.40;;
6388;SDS011;3227;42.654;23.360;2024-03-08T06:37:19;8.93;;;4.80;;
6388;SDS011;3227;42.654;23.360;2024-03-08T06:39:48;8.37;;;4.40;;
6388;SDS011;3227;42.654;23.360;2024-03-08T06:42:16;9.07;;;4.88;;
6388;SDS011;3227;42.654;23.360;2024-03-08T06:44:43;8.17;;;3.90;;
6388;SDS011;3227;42.654;23.360;2024-03-08T06:47:14;7.63;;;4.20;;
6388;SDS011;3227;42.654;23.360;2024-03-08T06:49:41;9.17;;;4.10;;
6388;SDS011;3227;42.654;23.360;2024-03-08T06:52:08;9.33;;;4.23;;
6388;SDS011;3227;42.654;23.360;2024-03-08T06:54:35;7.63;;;4.10;;
6388;SDS011;3227;42.654;23.360;2024-03-08T06:57:03;7.30;;;4.37;;
6388;SDS011;3227;42.654;23.360;2024-03-08T06:59:30;7.10;;;4.13;;
6388;SDS011;3227;42.654;23.360;2024-03-08T07:01:57;8.67;;;4.40;;
6388;SDS011;3227;42.654;23.360;2024-03-08T07:04:24;7.87;;;4.50;;
6388;SDS011;3227;42.654;23.360;2024-03-08T07:06:54;7.63;;;4.10;;
6388;SDS011;3227;42.654;23.360;2024-03-08T07:09:20;7.70;;;4.47;;
6388;SDS011;3227;42.654;23.360;2024-03-08T07:11:47;6.57;;;3.90;;
6388;SDS011;3227;42.654;23.360;2024-03-08T07:14:23;6.60;;;3.23;;
6388;SDS011;3227;42.654;23.360;2024-03-08T07:16:56;5.63;;;3.60;;
6388;SDS011;3227;42.654;23.360;2024-03-08T07:19:22;7.17;;;3.40;;
6388;SDS011;3227;42.654;23.360;2024-03-08T07:21:49;5.90;;;3.20;;
6388;SDS011;3227;42.654;23.360;2024-03-08T07:24:16;6.57;;;3.70;;
6388;SDS011;3227;42.654;23.360;2024-03-08T07:27:04;6.07;;;3.67;;
6388;SDS011;3227;42.654;23.360;2024-03-08T07:29:32;6.23;;;3.47;;
6388;SDS011;3227;42.654;23.360;2024-03-08T07:31:59;6.23;;;3.43;;
6388;SDS011;3227;42.654;23.360;2024-03-08T07:34:37;6.27;;;3.60;;
6388;SDS011;3227;42.654;23.360;2024-03-08T07:37:05;6.70;;;3.80;;
6388;SDS011;3227;42.654;23.360;2024-03-08T07:39:32;7.60;;;4.38;;
6388;SDS011;3227;42.654;23.360;2024-03-08T07:41:59;5.57;;;3.20;;
6388;SDS011;3227;42.654;23.360;2024-03-08T07:44:26;6.53;;;3.70;;
6388;SDS011;3227;42.654;23.360;2024-03-08T07:46:54;6.85;;;3.60;;
6388;SDS011;3227;42.654;23.360;2024-03-08T07:49:21;6.70;;;3.63;;
6388;SDS011;3227;42.654;23.360;2024-03-08T07:51:47;10.02;;;3.90;;
6388;SDS011;3227;42.654;23.360;2024-03-08T07:54:15;6.23;;;3.47;;
6388;SDS011;3227;42.654;23.360;2024-03-08T07:56:42;7.27;;;3.87;;
6388;SDS011;3227;42.654;23.360;2024-03-08T07:59:08;8.03;;;4.10;;
6388;SDS011;3227;42.654;23.360;2024-03-08T08:01:37;7.07;;;3.90;;
6388;SDS011;3227;42.654;23.360;2024-03-08T08:04:05;7.93;;;4.27;;
6388;SDS011;3227;42.654;23.360;2024-03-08T08:06:32;7.63;;;4.13;;
6388;SDS011;3227;42.654;23.360;2024-03-08T08:09:00;6.50;;;4.00;;
6388;SDS011;3227;42.654;23.360;2024-03-08T08:11:26;7.43;;;3.57;;
6388;SDS011;3227;42.654;23.360;2024-03-08T08:13:58;9.37;;;4.23;;
6388;SDS011;3227;42.654;23.360;2024-03-08T08:16:25;6.63;;;3.60;;
6388;SDS011;3227;42.654;23.360;2024-03-08T08:18:52;7.65;;;3.97;;
6388;SDS011;3227;42.654;23.360;2024-03-08T08:21:21;7.68;;;4.50;;
6388;SDS011;3227;42.654;23.360;2024-03-08T08:23:47;8.10;;;4.28;;
6388;SDS011;3227;42.654;23.360;2024-03-08T08:26:14;6.47;;;3.63;;
6388;SDS011;3227;42.654;23.360;2024-03-08T08:28:42;6.20;;;3.70;;
6388;SDS011;3227;42.654;23.360;2024-03-08T08:31:11;6.60;;;3.73;;
6388;SDS011;3227;42.654;23.360;2024-03-08T08:33:38;8.55;;;3.85;;
6388;SDS011;3227;42.654;23.360;2024-03-08T08:36:05;7.90;;;4.00;;
6388;SDS011;3227;42.654;23.360;2024-03-08T08:38:34;8.48;;;4.00;;
6388;SDS011;3227;42.654;23.360;2024-03-08T08:41:01;7.33;;;4.10;;
6388;SDS011;3227;42.654;23.360;2024-03-08T08:43:28;5.47;;;2.97;;
6388;SDS011;3227;42.654;23.360;2024-03-08T08:45:55;6.90;;;3.40;;
6388;SDS011;3227;42.654;23.360;2024-03-08T08:48:21;6.07;;;3.10;;
6388;SDS011;3227;42.654;23.360;2024-03-08T08:50:49;8.23;;;3.60;;
6388;SDS011;3227;42.654;23.360;2024-03-08T08:53:17;7.83;;;3.60;;
6388;SDS011;3227;42.654;23.360;2024-03-08T08:55:46;6.33;;;3.60;;
6388;SDS011;3227;42.654;23.360;2024-03-08T08:58:12;6.20;;;3.47;;
6388;SDS011;3227;42.654;23.360;2024-03-08T09:00:39;8.20;;;3.13;;
6388;SDS011;3227;42.654;23.360;2024-03-08T09:03:07;10.30;;;3.20;;
6388;SDS011;3227;42.654;23.360;2024-03-08T09:05:34;8.87;;;3.60;;
6388;SDS011;3227;42.654;23.360;2024-03-08T09:08:00;6.30;;;3.30;;
6388;SDS011;3227;42.654;23.360;2024-03-08T09:10:28;7.80;;;3.63;;
6388;SDS011;3227;42.654;23.360;2024-03-08T09:12:56;5.23;;;3.03;;
6388;SDS011;3227;42.654;23.360;2024-03-08T09:15:24;6.70;;;3.20;;
6388;SDS011;3227;42.654;23.360;2024-03-08T09:17:53;9.37;;;3.07;;
6388;SDS011;3227;42.654;23.360;2024-03-08T09:20:20;6.40;;;3.28;;
6388;SDS011;3227;42.654;23.360;2024-03-08T09:22:47;4.87;;;2.80;;
6388;SDS011;3227;42.654;23.360;2024-03-08T09:25:14;6.67;;;2.97;;
6388;SDS011;3227;42.654;23.360;2024-03-08T09:27:41;5.73;;;3.17;;
6388;SDS011;3227;42.654;23.360;2024-03-08T09:30:10;7.40;;;3.20;;
6388;SDS011;3227;42.654;23.360;2024-03-08T09:32:38;6.13;;;3.27;;
6388;SDS011;3227;42.654;23.360;2024-03-08T09:35:05;4.00;;;2.40;;
6388;SDS011;3227;42.654;23.360;2024-03-08T09:37:32;4.68;;;2.30;;
6388;SDS011;3227;42.654;23.360;2024-03-08T09:40:00;4.53;;;2.30;;
6388;SDS011;3227;42.654;23.360;2024-03-08T09:42:29;4.80;;;2.67;;
6388;SDS011;3227;42.654;23.360;2024-03-08T09:45:02;7.10;;;3.00;;
6388;SDS011;3227;42.654;23.360;2024-03-08T09:47:31;5.33;;;2.77;;
6388;SDS011;3227;42.654;23.360;2024-03-08T09:49:59;7.37;;;2.80;;
6388;SDS011;3227;42.654;23.360;2024-03-08T09:52:26;5.87;;;2.90;;
6388;SDS011;3227;42.654;23.360;2024-03-08T09:54:56;14.20;;;7.53;;
6388;SDS011;3227;42.654;23.360;2024-03-08T09:57:23;5.83;;;3.07;;
6388;SDS011;3227;42.654;23.360;2024-03-08T09:59:51;4.50;;;2.40;;
6388;SDS011;3227;42.654;23.360;2024-03-08T10:02:18;4.57;;;2.50;;
6388;SDS011;3227;42.654;23.360;2024-03-08T10:04:47;4.97;;;2.37;;
6388;SDS011;3227;42.654;23.360;2024-03-08T10:07:25;5.20;;;2.70;;
6388;SDS011;3227;42.654;23.360;2024-03-08T10:10:11;4.10;;;2.43;;
6388;SDS011;3227;42.654;23.360;2024-03-08T10:12:38;4.50;;;2.57;;
6388;SDS011;3227;42.654;23.360;2024-03-08T10:15:05;5.07;;;2.60;;
6388;SDS011;3227;42.654;23.360;2024-03-08T10:17:34;4.25;;;2.47;;
6388;SDS011;3227;42.654;23.360;2024-03-08T10:20:02;4.67;;;2.60;;
6388;SDS011;3227;42.654;23.360;2024-03-08T10:22:40;4.70;;;2.60;;
6388;SDS011;3227;42.654;23.360;2024-03-08T10:25:09;4.53;;;2.50;;
6388;SDS011;3227;42.654;23.360;2024-03-08T10:27:36;4.23;;;2.47;;
6388;SDS011;3227;42.654;23.360;2024-03-08T10:30:06;7.70;;;2.60;;
6388;SDS011;3227;42.654;23.360;2024-03-08T10:32:37;4.43;;;2.70;;
6388;SDS011;3227;42.654;23.360;2024-03-08T10:35:06;3.83;;;2.33;;
6388;SDS011;3227;42.654;23.360;2024-03-08T10:37:34;4.07;;;2.43;;
6388;SDS011;3227;42.654;23.360;2024-03-08T10:40:10;4.70;;;3.00;;
6388;SDS011;3227;42.654;23.360;2024-03-08T10:42:51;4.17;;;2.40;;
6388;SDS011;3227;42.654;23.360;2024-03-08T10:45:22;4.37;;;2.37;;
6388;SDS011;3227;42.654;23.360;2024-03-08T10:48:03;4.47;;;2.40;;
6388;SDS011;3227;42.654;23.360;2024-03-08T10:50:42;5.30;;;2.57;;
6388;SDS011;3227;42.654;23.360;2024-03-08T10:53:10;4.50;;;2.20;;
6388;SDS011;3227;42.654;23.360;2024-03-08T10:55:39;3.70;;;2.20;;
6388;SDS011;3227;42.654;23.360;2024-03-08T10:58:07;3.27;;;2.03;;
6388;SDS011;3227;42.654;23.360;2024-03-08T11:00:34;4.63;;;2.50;;
6388;SDS011;3227;42.654;23.360;2024-03-08T11:03:02;2.63;;;1.97;;
6388;SDS011;3227;42.654;23.360;2024-03-08T11:05:32;4.40;;;2.40;;
6388;SDS011;3227;42.654;23.360;2024-03-08T11:08:08;4.70;;;2.40;;
6388;SDS011;3227;42.654;23.360;2024-03-08T11:10:48;4.90;;;2.50;;
6388;SDS011;3227;42.654;23.360;2024-03-08T11:13:32;4.97;;;2.23;;
6388;SDS011;3227;42.654;23.360;2024-03-08T11:15:59;4.50;;;2.30;;
6388;SDS011;3227;42.654;23.360;2024-03-08T11:18:26;4.83;;;2.30;;
6388;SDS011;3227;42.654;23.360;2024-03-08T11:20:53;5.28;;;2.40;;
6388;SDS011;3227;42.654;23.360;2024-03-08T11:23:23;3.97;;;2.53;;
6388;SDS011;3227;42.654;23.360;2024-03-08T11:25:51;4.73;;;2.43;;
6388;SDS011;3227;42.654;23.360;2024-03-08T11:28:19;3.57;;;2.10;;
6388;SDS011;3227;42.654;23.360;2024-03-08T11:30:47;4.00;;;2.47;;
6388;SDS011;3227;42.654;23.360;2024-03-08T11:33:49;3.50;;;2.13;;
6388;SDS011;3227;42.654;23.360;2024-03-08T11:36:20;5.60;;;2.30;;
6388;SDS011;3227;42.654;23.360;2024-03-08T11:38:48;3.13;;;2.03;;
6388;SDS011;3227;42.654;23.360;2024-03-08T11:41:16;3.23;;;2.10;;
6388;SDS011;3227;42.654;23.360;2024-03-08T11:43:45;4.43;;;2.40;;
6388;SDS011;3227;42.654;23.360;2024-03-08T11:46:11;3.58;;;2.17;;
6388;SDS011;3227;42.654;23.360;2024-03-08T11:48:39;3.03;;;2.00;;
6388;SDS011;3227;42.654;23.360;2024-03-08T11:51:07;3.07;;;2.03;;
6388;SDS011;3227;42.654;23.360;2024-03-08T11:53:35;4.83;;;2.20;;
6388;SDS011;3227;42.654;23.360;2024-03-08T11:56:07;2.13;;;1.80;;
6388;SDS011;3227;42.654;23.360;2024-03-08T11:58:35;2.90;;;2.00;;
6388;SDS011;3227;42.654;23.360;2024-03-08T12:01:02;2.87;;;2.00;;
6388;SDS011;3227;42.654;23.360;2024-03-08T12:03:35;3.60;;;2.30;;
6388;SDS011;3227;42.654;23.360;2024-03-08T12:06:03;2.90;;;1.97;;
6388;SDS011;3227;42.654;23.360;2024-03-08T12:08:30;3.07;;;2.10;;
6388;SDS011;3227;42.654;23.360;2024-03-08T12:10:58;2.50;;;2.10;;
6388;SDS011;3227;42.654;23.360;2024-03-08T12:13:27;3.23;;;2.00;;
6388;SDS011;3227;42.654;23.360;2024-03-08T12:15:56;3.08;;;2.00;;
6388;SDS011;3227;42.654;23.360;2024-03-08T12:18:24;4.22;;;2.20;;
6388;SDS011;3227;42.654;23.360;2024-03-08T12:20:51;4.07;;;2.30;;
6388;SDS011;3227;42.654;23.360;2024-03-08T12:23:18;3.65;;;2.20;;
6388;SDS011;3227;42.654;23.360;2024-03-08T12:25:45;4.05;;;2.30;;
6388;SDS011;3227;42.654;23.360;2024-03-08T12:28:12;3.97;;;2.20;;
6388;SDS011;3227;42.654;23.360;2024-03-08T12:30:45;4.27;;;2.20;;
6388;SDS011;3227;42.654;23.360;2024-03-08T12:33:14;3.75;;;2.10;;
6388;SDS011;3227;42.654;23.360;2024-03-08T12:35:49;5.18;;;2.20;;
6388;SDS011;3227;42.654;23.360;2024-03-08T12:38:18;3.27;;;2.20;;
6388;SDS011;3227;42.654;23.360;2024-03-08T12:40:50;3.78;;;2.15;;
6388;SDS011;3227;42.654;23.360;2024-03-08T12:43:18;3.70;;;2.20;;
6388;SDS011;3227;42.654;23.360;2024-03-08T12:45:46;2.83;;;2.13;;
6388;SDS011;3227;42.654;23.360;2024-03-08T12:48:13;3.15;;;2.08;;
6388;SDS011;3227;42.654;23.360;2024-03-08T12:50:40;3.57;;;2.20;;
6388;SDS011;3227;42.654;23.360;2024-03-08T12:53:09;3.10;;;2.10;;
6388;SDS011;3227;42.654;23.360;2024-03-08T12:55:35;3.17;;;2.07;;
6388;SDS011;3227;42.654;23.360;2024-03-08T12:58:03;4.00;;;2.30;;
6388;SDS011;3227;42.654;23.360;2024-03-08T13:00:32;3.07;;;2.00;;
6388;SDS011;3227;42.654;23.360;2024-03-08T13:03:02;3.37;;;2.23;;
6388;SDS011;3227;42.654;23.360;2024-03-08T13:05:31;4.47;;;2.20;;
6388;SDS011;3227;42.654;23.360;2024-03-08T13:07:58;3.50;;;2.20;;
6388;SDS011;3227;42.654;23.360;2024-03-08T13:10:25;5.77;;;2.10;;
6388;SDS011;3227;42.654;23.360;2024-03-08T13:12:51;4.03;;;2.20;;
6388;SDS011;3227;42.654;23.360;2024-03-08T13:15:19;4.78;;;2.10;;
6388;SDS011;3227;42.654;23.360;2024-03-08T13:17:46;3.13;;;2.23;;
6388;SDS011;3227;42.654;23.360;2024-03-08T13:20:14;5.28;;;2.20;;
6388;SDS011;3227;42.654;23.360;2024-03-08T13:22:44;3.73;;;2.10;;
6388;SDS011;3227;42.654;23.360;2024-03-08T13:25:11;4.27;;;2.40;;
6388;SDS011;3227;42.654;23.360;2024-03-08T13:27:38;3.10;;;2.17;;
6388;SDS011;3227;42.654;23.360;2024-03-08T13:30:06;3.20;;;2.10;;
6388;SDS011;3227;42.654;23.360;2024-03-08T13:32:37;3.42;;;2.10;;
6388;SDS011;3227;42.654;23.360;2024-03-08T13:35:05;2.93;;;2.00;;
6388;SDS011;3227;42.654;23.360;2024-03-08T13:37:38;3.20;;;2.10;;
6388;SDS011;3227;42.654;23.360;2024-03-08T13:40:06;3.97;;;2.23;;
6388;SDS011;3227;42.654;23.360;2024-03-08T13:42:36;4.07;;;2.50;;
6388;SDS011;3227;42.654;23.360;2024-03-08T13:45:03;7.43;;;2.13;;
6388;SDS011;3227;42.654;23.360;2024-03-08T13:47:32;3.57;;;2.30;;
6388;SDS011;3227;42.654;23.360;2024-03-08T13:49:59;3.60;;;2.20;;
6388;SDS011;3227;42.654;23.360;2024-03-08T13:52:26;4.03;;;2.30;;
6388;SDS011;3227;42.654;23.360;2024-03-08T13:54:55;3.83;;;2.00;;
6388;SDS011;3227;42.654;23.360;2024-03-08T13:57:22;3.73;;;2.07;;
6388;SDS011;3227;42.654;23.360;2024-03-08T13:59:49;2.83;;;2.00;;
6388;SDS011;3227;42.654;23.360;2024-03-08T14:02:16;3.93;;;2.03;;
6388;SDS011;3227;42.654;23.360;2024-03-08T14:04:43;3.33;;;2.03;;
6388;SDS011;3227;42.654;23.360;2024-03-08T14:07:10;7.13;;;2.40;;
6388;SDS011;3227;42.654;23.360;2024-03-08T14:09:36;3.90;;;2.00;;
6388;SDS011;3227;42.654;23.360;2024-03-08T14:12:09;4.00;;;2.23;;
6388;SDS011;3227;42.654;23.360;2024-03-08T14:14:36;4.15;;;2.20;;
6388;SDS011;3227;42.654;23.360;2024-03-08T14:17:03;3.70;;;2.37;;
6388;SDS011;3227;42.654;23.360;2024-03-08T14:19:31;4.10;;;2.40;;
6388;SDS011;3227;42.654;23.360;2024-03-08T14:21:59;4.03;;;2.20;;
6388;SDS011;3227;42.654;23.360;2024-03-08T14:24:25;4.13;;;2.22;;
6388;SDS011;3227;42.654;23.360;2024-03-08T14:26:52;4.63;;;2.30;;
6388;SDS011;3227;42.654;23.360;2024-03-08T14:29:20;4.33;;;2.40;;
6388;SDS011;3227;42.654;23.360;2024-03-08T14:31:47;4.63;;;2.47;;
6388;SDS011;3227;42.654;23.360;2024-03-08T14:34:14;4.10;;;2.50;;
6388;SDS011;3227;42.654;23.360;2024-03-08T14:36:40;3.63;;;2.13;;
6388;SDS011;3227;42.654;23.360;2024-03-08T14:39:08;4.97;;;2.50;;
6388;SDS011;3227;42.654;23.360;2024-03-08T14:41:35;4.97;;;2.63;;
6388;SDS011;3227;42.654;23.360;2024-03-08T14:44:02;5.75;;;2.78;;
6388;SDS011;3227;42.654;23.360;2024-03-08T14:46:30;5.13;;;2.87;;
6388;SDS011;3227;42.654;23.360;2024-03-08T14:48:56;4.23;;;2.50;;
6388;SDS011;3227;42.654;23.360;2024-03-08T14:51:23;7.57;;;2.80;;
6388;SDS011;3227;42.654;23.360;2024-03-08T14:53:51;5.80;;;2.80;;
6388;SDS011;3227;42.654;23.360;2024-03-08T14:56:19;3.47;;;2.47;;
6388;SDS011;3227;42.654;23.360;2024-03-08T14:58:46;4.20;;;2.30;;
6388;SDS011;3227;42.654;23.360;2024-03-08T15:01:14;5.23;;;2.70;;
6388;SDS011;3227;42.654;23.360;2024-03-08T15:03:43;5.43;;;2.43;;
6388;SDS011;3227;42.654;23.360;2024-03-08T15:06:09;7.00;;;2.40;;